createdAt,value
2019-02-26T00:02:00.520Z,100564.17
2019-02-26T00:04:29.686Z,100557.23
2019-02-26T00:07:00.479Z,100542.48
2019-02-26T00:09:30.597Z,100542.05
2019-02-26T00:12:01.083Z,100535.98
2019-02-26T00:14:30.552Z,100535.10
2019-02-26T00:17:00.013Z,100535.53
2019-02-26T00:19:29.368Z,100536.39
2019-02-26T00:21:58.936Z,100531.62
2019-02-26T00:24:30.757Z,100525.56
2019-02-26T00:27:01.454Z,100519.49
2019-02-26T00:29:32.152Z,100511.23
2019-02-26T00:32:02.936Z,100502.11
2019-02-26T00:34:34.488Z,100507.31
2019-02-26T00:37:04.553Z,100517.31
2019-02-26T00:39:35.017Z,100516.87
2019-02-26T00:42:05.224Z,100506.03
2019-02-26T00:44:37.194Z,100502.98
2019-02-26T00:47:06.769Z,100500.80
2019-02-26T00:49:37.168Z,100496.04
2019-02-26T00:52:08.549Z,100497.34
2019-02-26T00:54:37.726Z,100487.38
2019-02-26T00:57:08.624Z,100480.86
2019-02-26T00:59:40.738Z,100475.66
2019-02-26T01:02:09.757Z,100472.62
2019-02-26T01:04:41.371Z,100462.62
2019-02-26T01:07:10.291Z,100452.64
2019-02-26T01:09:39.793Z,100445.67
2019-02-26T01:12:11.350Z,100436.55
2019-02-26T01:14:41.383Z,100423.55
2019-02-26T01:17:12.634Z,100411.38
2019-02-26T01:19:43.114Z,100401.42
2019-02-26T01:22:12.526Z,100392.70
2019-02-26T01:24:41.932Z,100397.45
2019-02-26T01:27:11.346Z,100392.23
2019-02-26T01:29:40.817Z,100377.44
2019-02-26T01:32:13.211Z,100372.67
2019-02-26T01:34:42.683Z,100366.57
2019-02-26T01:37:12.511Z,100361.79
2019-02-26T01:39:42.946Z,100369.22
2019-02-26T01:42:15.539Z,100367.94
2019-02-26T01:44:44.557Z,100357.94
2019-02-26T01:47:14.292Z,100364.45
2019-02-26T01:49:44.175Z,100364.03
2019-02-26T01:52:16.934Z,100369.68
2019-02-26T01:54:46.154Z,100367.89
2019-02-26T01:57:17.283Z,100363.55
2019-02-26T01:59:47.407Z,100363.97
2019-02-26T02:02:20.266Z,100356.17
2019-02-26T02:04:49.105Z,100344.02
2019-02-26T02:07:18.939Z,100336.14
2019-02-26T02:09:51.296Z,100334.84
2019-02-26T02:12:21.034Z,100327.05
2019-02-26T02:14:50.537Z,100333.13
2019-02-26T02:17:20.238Z,100336.64
2019-02-26T02:19:49.607Z,100314.48
2019-02-26T02:22:21.233Z,100304.94
2019-02-26T02:24:50.973Z,100295.37
2019-02-26T02:27:22.596Z,100289.28
2019-02-26T02:29:55.162Z,100288.87
2019-02-26T02:32:26.105Z,100281.03
2019-02-26T02:34:58.251Z,100286.29
2019-02-26T02:37:27.472Z,100288.06
2019-02-26T02:39:57.608Z,100288.09
2019-02-26T02:42:27.014Z,100285.95
2019-02-26T02:44:56.375Z,100276.03
2019-02-26T02:47:29.906Z,100286.05
2019-02-26T02:49:57.042Z,100289.95
2019-02-26T02:52:27.042Z,100277.81
2019-02-26T02:54:57.876Z,100276.98
2019-02-26T02:57:29.452Z,100273.10
2019-02-26T02:59:59.699Z,100271.79
2019-02-26T03:02:29.761Z,100272.23
2019-02-26T03:04:59.138Z,100280.47
2019-02-26T03:07:29.452Z,100280.92
2019-02-26T03:10:03.928Z,100280.94
2019-02-26T03:12:31.850Z,100291.35
2019-02-26T03:15:02.241Z,100282.28
2019-02-26T03:17:32.730Z,100281.86
2019-02-26T03:20:04.958Z,100275.78
2019-02-26T03:22:36.113Z,100269.27
2019-02-26T03:25:04.934Z,100273.61
2019-02-26T03:27:36.747Z,100267.58
2019-02-26T03:30:07.155Z,100264.98
2019-02-26T03:32:41.211Z,100267.60
2019-02-26T03:35:10.267Z,100261.98
2019-02-26T03:37:38.935Z,100259.41
2019-02-26T03:40:09.553Z,100258.11
2019-02-26T03:42:40.946Z,100258.09
2019-02-26T03:45:11.975Z,100252.92
2019-02-26T03:47:41.466Z,100254.23
2019-02-26T03:50:12.895Z,100238.62
2019-02-26T03:52:42.479Z,100243.85
2019-02-26T03:55:15.473Z,100248.61
2019-02-26T03:57:47.380Z,100241.70
2019-02-26T04:00:17.386Z,100241.68
2019-02-26T04:02:49.087Z,100240.41
2019-02-26T04:05:18.247Z,100230.84
2019-02-26T04:07:51.764Z,100231.29
2019-02-26T04:10:19.027Z,100222.64
2019-02-26T04:12:51.837Z,100229.57
2019-02-26T04:15:19.558Z,100226.98
2019-02-26T04:17:49.238Z,100224.83
2019-02-26T04:20:18.697Z,100239.97
2019-02-26T04:22:49.862Z,100222.65
2019-02-26T04:25:36.438Z,100218.77
2019-02-26T04:28:16.176Z,100221.36
2019-02-26T04:31:50.258Z,100222.66
2019-02-26T04:34:54.533Z,100223.98
2019-02-26T04:38:01.571Z,100220.08
2019-02-26T04:40:45.148Z,100211.41
2019-02-26T04:43:54.674Z,100217.44
2019-02-26T04:46:57.637Z,100209.21
2019-02-26T04:49:30.351Z,100232.14
2019-02-26T04:51:59.287Z,100222.17
2019-02-26T04:54:31.157Z,100232.09
2019-02-26T04:57:00.261Z,100223.00
2019-02-26T04:59:32.237Z,100232.10
2019-02-26T05:02:00.976Z,100233.41
2019-02-26T05:04:33.207Z,100235.12
2019-02-26T05:07:04.402Z,100230.81
2019-02-26T05:09:35.323Z,100238.20
2019-02-26T05:12:04.162Z,100229.95
2019-02-26T05:14:33.522Z,100229.98
2019-02-26T05:17:02.944Z,100219.17
2019-02-26T05:19:32.465Z,100218.30
2019-02-26T05:22:04.347Z,100203.11
2019-02-26T05:24:33.068Z,100199.63
2019-02-26T05:27:12.466Z,100203.09
2019-02-26T05:29:43.445Z,100200.02
2019-02-26T05:32:12.825Z,100205.67
2019-02-26T05:34:44.811Z,100201.73
2019-02-26T05:37:13.997Z,100194.36
2019-02-26T05:39:45.885Z,100189.14
2019-02-26T05:42:14.725Z,100187.80
2019-02-26T05:44:44.296Z,100188.23
2019-02-26T05:47:15.725Z,100186.02
2019-02-26T05:49:45.851Z,100185.59
2019-02-26T05:52:15.509Z,100185.56
2019-02-26T05:54:45.028Z,100188.58
2019-02-26T05:57:27.181Z,100176.86
2019-02-26T05:59:45.635Z,100172.93
2019-02-26T06:02:16.721Z,100171.16
2019-02-26T06:04:46.747Z,100171.94
2019-02-26T06:07:19.287Z,100157.14
2019-02-26T06:09:48.371Z,100160.98
2019-02-26T06:12:18.700Z,100160.94
2019-02-26T06:14:48.067Z,100159.56
2019-02-26T06:17:19.737Z,100162.58
2019-02-26T06:19:49.868Z,100151.69
2019-02-26T06:22:21.416Z,100160.32
2019-02-26T06:24:54.973Z,100157.64
2019-02-26T06:27:24.465Z,100158.06
2019-02-26T06:29:55.211Z,100161.47
2019-02-26T06:32:27.426Z,100168.39
2019-02-26T06:34:55.488Z,100170.94
2019-02-26T06:37:24.927Z,100179.15
2019-02-26T06:39:55.633Z,100172.53
2019-02-26T06:42:25.601Z,100186.39
2019-02-26T06:44:54.960Z,100183.73
2019-02-26T06:47:27.983Z,100181.06
2019-02-26T06:49:55.651Z,100174.92
2019-02-26T06:52:25.172Z,100168.30
2019-02-26T06:54:57.477Z,100166.50
2019-02-26T06:57:25.781Z,100158.57
2019-02-26T06:59:58.329Z,100156.73
2019-02-26T07:02:28.929Z,100155.37
2019-02-26T07:04:57.542Z,100155.30
2019-02-26T07:07:26.986Z,100146.91
2019-02-26T07:09:58.164Z,100150.75
2019-02-26T07:12:28.044Z,100151.12
2019-02-26T07:14:58.085Z,100131.91
2019-02-26T07:17:31.555Z,100142.70
2019-02-26T07:20:00.396Z,100140.90
2019-02-26T07:22:30.195Z,100142.70
2019-02-26T07:24:59.617Z,100137.11
2019-02-26T07:27:31.394Z,100144.03
2019-02-26T07:30:00.301Z,100135.67
2019-02-26T07:32:31.292Z,100125.23
2019-02-26T07:35:00.815Z,100126.01
2019-02-26T07:37:31.463Z,100120.77
2019-02-26T07:40:03.247Z,100115.77
2019-02-26T07:42:34.763Z,100106.86
2019-02-26T07:45:03.839Z,100094.48
2019-02-26T07:47:34.326Z,100103.92
2019-02-26T07:50:06.636Z,100096.31
2019-02-26T07:52:35.694Z,100097.05
2019-02-26T07:55:06.247Z,100081.16
2019-02-26T07:57:37.047Z,100088.01
2019-02-26T08:00:08.578Z,100083.39
2019-02-26T08:02:38.043Z,100078.81
2019-02-26T08:05:08.075Z,100077.13
2019-02-26T08:07:37.518Z,100081.88
2019-02-26T08:10:11.787Z,100076.23
2019-02-26T08:12:42.666Z,100072.58
2019-02-26T08:15:15.456Z,100075.27
2019-02-26T08:17:47.855Z,100070.52
2019-02-26T08:20:17.113Z,100060.02
2019-02-26T08:22:46.600Z,100050.33
2019-02-26T08:25:16.019Z,100054.92
2019-02-26T08:27:45.449Z,100062.50
2019-02-26T08:30:21.019Z,100058.86
2019-02-26T08:32:53.521Z,100052.56
2019-02-26T08:35:20.443Z,100048.09
2019-02-26T08:37:49.881Z,100045.19
2019-02-26T08:40:19.388Z,100034.08
2019-02-26T08:42:48.799Z,100029.12
2019-02-26T08:45:22.434Z,100020.56
2019-02-26T08:47:50.489Z,100018.14
2019-02-26T08:50:19.873Z,100018.25
2019-02-26T08:52:52.297Z,100020.45
2019-02-26T08:55:23.883Z,100016.58
2019-02-26T08:57:54.039Z,100016.98
2019-02-26T09:00:22.959Z,100024.45
2019-02-26T09:02:54.474Z,100016.64
2019-02-26T09:05:25.848Z,100008.27
2019-02-26T09:07:55.111Z,100004.94
2019-02-26T09:10:24.506Z,100005.28
2019-02-26T09:12:53.955Z,99998.94
2019-02-26T09:15:23.450Z,99998.88
2019-02-26T09:17:52.890Z,99991.14
2019-02-26T09:20:22.278Z,99990.83
2019-02-26T09:22:54.430Z,99985.72
2019-02-26T09:25:25.984Z,99975.75
2019-02-26T09:27:54.240Z,99963.22
2019-02-26T09:30:23.738Z,99947.63
2019-02-26T09:32:53.417Z,99948.09
2019-02-26T09:35:26.930Z,99932.75
2019-02-26T09:37:57.656Z,99933.77
2019-02-26T09:40:26.582Z,99924.20
2019-02-26T09:42:58.104Z,99925.23
2019-02-26T09:45:29.945Z,99918.00
2019-02-26T09:48:01.102Z,99917.74
2019-02-26T09:50:30.206Z,99915.25
2019-02-26T09:52:59.622Z,99901.45
2019-02-26T09:55:29.765Z,99885.67
2019-02-26T09:57:59.190Z,99876.09
2019-02-26T10:00:29.599Z,99868.94
2019-02-26T10:02:59.202Z,99859.39
2019-02-26T10:05:28.621Z,99848.66
2019-02-26T10:08:02.040Z,99840.55
2019-02-26T10:10:31.150Z,99835.31
2019-02-26T10:13:04.769Z,99830.95
2019-02-26T10:15:34.890Z,99826.18
2019-02-26T10:18:07.242Z,99816.51
2019-02-26T10:20:36.304Z,99806.38
2019-02-26T10:23:06.459Z,99798.41
2019-02-26T10:25:38.597Z,99800.88
2019-02-26T10:28:11.036Z,99794.11
2019-02-26T10:30:41.034Z,99782.65
2019-02-26T10:33:09.687Z,99779.55
2019-02-26T10:35:42.134Z,99775.57
2019-02-26T10:38:11.526Z,99768.45
2019-02-26T10:40:52.270Z,99766.22
2019-02-26T10:43:12.482Z,99756.22
2019-02-26T10:45:44.813Z,99761.53
2019-02-26T10:48:13.650Z,99752.91
2019-02-26T10:50:46.951Z,99759.03
2019-02-26T10:53:18.965Z,99741.56
2019-02-26T10:55:46.651Z,99739.77
2019-02-26T10:58:16.096Z,99734.56
2019-02-26T11:00:52.068Z,99729.45
2019-02-26T11:03:20.237Z,99723.98
2019-02-26T11:05:52.164Z,99718.70
2019-02-26T11:08:23.663Z,99718.81
2019-02-26T11:10:52.448Z,99715.78
2019-02-26T11:13:24.911Z,99707.50
2019-02-26T11:15:56.171Z,99705.36
2019-02-26T11:18:24.663Z,99706.84
2019-02-26T11:20:56.138Z,99693.32
2019-02-26T11:23:30.882Z,99686.89
2019-02-26T11:25:56.586Z,99688.73
2019-02-26T11:28:29.731Z,99690.86
2019-02-26T11:30:57.178Z,99698.86
2019-02-26T11:33:26.622Z,99695.21
2019-02-26T11:35:56.166Z,99686.45
2019-02-26T11:38:25.706Z,99684.79
2019-02-26T11:40:55.089Z,99684.17
2019-02-26T11:43:27.103Z,99687.72
2019-02-26T11:45:56.651Z,99676.05
2019-02-26T11:48:28.934Z,99669.27
2019-02-26T11:51:00.791Z,99665.27
2019-02-26T11:53:30.315Z,99645.08
2019-02-26T11:56:01.978Z,99634.89
2019-02-26T11:58:31.066Z,99635.61
2019-02-26T12:01:01.866Z,99607.63
2019-02-26T12:03:34.164Z,99600.94
2019-02-26T12:06:02.534Z,99592.34
2019-02-26T12:08:32.252Z,99584.20
2019-02-26T12:11:04.069Z,99576.27
2019-02-26T12:13:32.818Z,99564.87
2019-02-26T12:16:02.324Z,99551.90
2019-02-26T12:18:31.742Z,99546.22
2019-02-26T12:21:03.527Z,99538.67
2019-02-26T12:23:34.312Z,99536.57
2019-02-26T12:26:04.002Z,99527.27
2019-02-26T12:28:35.940Z,99530.14
2019-02-26T12:31:06.984Z,99517.36
2019-02-26T12:33:35.825Z,99520.00
2019-02-26T12:36:07.435Z,99512.97
2019-02-26T12:38:36.852Z,99513.37
2019-02-26T12:41:09.022Z,99509.76
2019-02-26T12:43:40.254Z,99505.59
2019-02-26T12:46:09.063Z,99500.84
2019-02-26T12:48:41.808Z,99505.02
2019-02-26T12:51:09.852Z,99486.94
2019-02-26T12:56:16.296Z,99485.34
2019-02-26T13:01:17.303Z,99470.42
2019-02-26T13:03:51.004Z,99462.67
2019-02-26T13:06:18.590Z,99464.19
2019-02-26T13:08:50.672Z,99464.09
2019-02-26T13:11:24.148Z,99448.89
2019-02-26T13:13:53.260Z,99459.18
2019-02-26T13:16:22.776Z,99463.05
2019-02-26T13:18:56.668Z,99439.95
2019-02-26T13:21:23.401Z,99442.09
2019-02-26T13:23:58.675Z,99434.09
2019-02-26T13:26:24.024Z,99439.48
2019-02-26T13:28:56.187Z,99449.22
2019-02-26T13:31:24.582Z,99440.95
2019-02-26T13:33:54.134Z,99440.16
2019-02-26T13:36:23.670Z,99424.77
2019-02-26T13:38:53.124Z,99424.29
2019-02-26T13:41:29.703Z,99414.84
2019-02-26T13:43:53.764Z,99418.06
2019-02-26T13:46:23.581Z,99419.00
2019-02-26T13:48:53.008Z,99402.84
2019-02-26T13:51:22.372Z,99391.00
2019-02-26T13:53:51.820Z,99383.83
2019-02-26T13:56:21.290Z,99382.13
2019-02-26T13:58:50.709Z,99379.95
2019-02-26T14:01:20.398Z,99366.91
2019-02-26T14:03:49.819Z,99367.87
2019-02-26T14:06:19.235Z,99363.52
2019-02-26T14:08:48.668Z,99357.55
2019-02-26T14:11:18.129Z,99347.56
2019-02-26T14:13:47.530Z,99343.02
2019-02-26T14:16:17.157Z,99339.80
2019-02-26T14:18:48.205Z,99334.77
2019-02-26T14:21:17.892Z,99338.81
2019-02-26T14:23:50.391Z,99325.43
2019-02-26T14:26:19.768Z,99333.08
2019-02-26T14:28:49.195Z,99315.13
2019-02-26T14:31:20.119Z,99300.46
2019-02-26T14:33:49.494Z,99305.05
2019-02-26T14:36:18.886Z,99305.71
2019-02-26T14:38:48.410Z,99301.17
2019-02-26T14:41:17.886Z,99295.11
2019-02-26T14:43:47.264Z,99284.95
2019-02-26T14:46:17.076Z,99282.09
2019-02-26T14:48:46.464Z,99270.48
2019-02-26T14:51:17.667Z,99272.34
2019-02-26T14:53:47.085Z,99267.61
2019-02-26T14:56:16.651Z,99263.83
2019-02-26T14:58:46.099Z,99263.98
2019-02-26T15:01:15.522Z,99257.30
2019-02-26T15:03:45.020Z,99251.03
2019-02-26T15:06:14.580Z,99244.80
2019-02-26T15:08:44.024Z,99231.84
2019-02-26T15:11:13.412Z,99224.30
2019-02-26T15:13:42.930Z,99216.53
2019-02-26T15:16:12.545Z,99214.55
2019-02-26T15:18:41.913Z,99208.11
2019-02-26T15:21:11.405Z,99207.22
2019-02-26T15:23:41.143Z,99195.72
2019-02-26T15:26:10.533Z,99181.85
2019-02-26T15:28:40.394Z,99183.80
2019-02-26T15:31:09.883Z,99189.45
2019-02-26T15:33:39.333Z,99189.12
2019-02-26T15:36:08.711Z,99176.87
2019-02-26T15:38:38.509Z,99188.42
2019-02-26T15:41:08.079Z,99196.61
2019-02-26T15:43:37.456Z,99212.62
2019-02-26T15:46:07.031Z,99210.70
2019-02-26T15:48:37.055Z,99215.86
2019-02-26T15:51:14.186Z,99216.45
2019-02-26T15:53:37.756Z,99215.95
2019-02-26T15:56:07.121Z,99213.41
2019-02-26T15:58:36.609Z,99208.75
2019-02-26T16:01:12.867Z,99212.03
2019-02-26T16:03:41.674Z,99214.00
2019-02-26T16:06:11.146Z,99215.55
2019-02-26T16:08:41.252Z,99218.28
2019-02-26T16:11:13.164Z,99217.60
2019-02-26T16:13:43.001Z,99217.98
2019-02-26T16:16:12.503Z,99232.87
2019-02-26T16:18:41.905Z,99236.73
2019-02-26T16:21:11.263Z,99243.53
2019-02-26T16:23:40.792Z,99243.48
2019-02-26T16:26:10.528Z,99241.52
2019-02-26T16:28:39.890Z,99243.77
2019-02-26T16:31:09.330Z,99264.40
2019-02-26T16:33:38.888Z,99275.51
2019-02-26T16:36:08.379Z,99293.43
2019-02-26T16:38:37.983Z,99289.58
2019-02-26T16:41:07.382Z,99297.58
2019-02-26T16:43:36.951Z,99299.16
2019-02-26T16:46:08.509Z,99307.92
2019-02-26T16:48:37.570Z,99322.80
2019-02-26T16:51:07.597Z,99320.08
2019-02-26T16:53:37.009Z,99330.23
2019-02-26T16:56:07.883Z,99333.97
2019-02-26T16:58:37.521Z,99330.48
2019-02-26T17:01:07.728Z,99338.09
2019-02-26T17:03:37.112Z,99338.98
2019-02-26T17:06:06.580Z,99342.25
2019-02-26T17:08:36.246Z,99348.76
2019-02-26T17:11:05.837Z,99350.92
2019-02-26T17:13:35.479Z,99353.17
2019-02-26T17:16:04.950Z,99351.47
2019-02-26T17:18:34.448Z,99348.45
2019-02-26T17:21:03.934Z,99352.23
2019-02-26T17:23:33.367Z,99349.38
2019-02-26T17:26:03.056Z,99355.73
2019-02-26T17:28:32.513Z,99367.90
2019-02-26T17:31:02.015Z,99361.55
2019-02-26T17:33:31.475Z,99379.11
2019-02-26T17:36:01.983Z,99387.80
2019-02-26T17:38:32.277Z,99395.44
2019-02-26T17:41:01.863Z,99406.67
2019-02-26T17:43:31.220Z,99399.85
2019-02-26T17:46:00.632Z,99405.24
2019-02-26T17:48:31.047Z,99407.72
2019-02-26T17:51:00.665Z,99415.31
2019-02-26T17:53:30.073Z,99411.25
2019-02-26T17:55:59.428Z,99403.62
2019-02-26T17:58:28.901Z,99418.02
2019-02-26T18:00:58.901Z,99422.45
2019-02-26T18:03:28.395Z,99417.22
2019-02-26T18:05:57.880Z,99417.17
2019-02-26T18:08:27.386Z,99412.25
2019-02-26T18:10:56.974Z,99399.82
2019-02-26T18:13:26.450Z,99404.80
2019-02-26T18:15:56.829Z,99413.23
2019-02-26T18:18:26.330Z,99426.52
2019-02-26T18:20:55.775Z,99435.66
2019-02-26T18:23:25.464Z,99443.86
2019-02-26T18:25:54.951Z,99441.30
2019-02-26T18:28:24.332Z,99450.97
2019-02-26T18:30:53.753Z,99456.23
2019-02-26T18:33:23.206Z,99466.22
2019-02-26T18:35:52.687Z,99465.58
2019-02-26T18:38:22.159Z,99471.86
2019-02-26T18:40:51.534Z,99468.31
2019-02-26T18:43:21.022Z,99458.33
2019-02-26T18:45:50.441Z,99471.22
2019-02-26T18:48:19.930Z,99480.93
2019-02-26T18:50:49.416Z,99480.25
2019-02-26T18:53:19.042Z,99470.05
2019-02-26T18:55:48.426Z,99479.19
2019-02-26T18:58:17.882Z,99484.05
2019-02-26T19:00:47.391Z,99476.53
2019-02-26T19:03:16.784Z,99473.58
2019-02-26T19:05:46.135Z,99475.74
2019-02-26T19:08:15.644Z,99470.92
2019-02-26T19:10:45.129Z,99475.94
2019-02-26T19:13:14.491Z,99472.72
2019-02-26T19:15:47.697Z,99467.24
2019-02-26T19:18:15.115Z,99465.23
2019-02-26T19:20:48.870Z,99463.03
2019-02-26T19:23:15.768Z,99469.19
2019-02-26T19:25:45.267Z,99466.65
2019-02-26T19:28:14.643Z,99461.33
2019-02-26T19:30:44.208Z,99459.16
2019-02-26T19:33:13.802Z,99462.38
2019-02-26T19:35:43.386Z,99459.76
2019-02-26T19:38:12.778Z,99465.87
2019-02-26T19:40:43.025Z,99463.56
2019-02-26T19:43:12.488Z,99460.15
2019-02-26T19:45:44.798Z,99466.72
2019-02-26T19:48:13.115Z,99472.17
2019-02-26T19:50:45.460Z,99458.29
2019-02-26T19:53:13.720Z,99465.52
2019-02-26T19:55:43.210Z,99467.36
2019-02-26T19:58:12.565Z,99479.97
2019-02-26T20:00:41.975Z,99487.16
2019-02-26T20:03:11.541Z,99490.78
2019-02-26T20:05:41.314Z,99494.78
2019-02-26T20:08:10.906Z,99483.63
2019-02-26T20:10:40.383Z,99485.03
2019-02-26T20:13:12.650Z,99486.80
2019-02-26T20:15:40.925Z,99486.94
2019-02-26T20:18:20.159Z,99486.22
2019-02-26T20:20:45.742Z,99500.66
2019-02-26T20:23:12.822Z,99501.52
2019-02-26T20:25:42.775Z,99491.92
2019-02-26T20:28:12.938Z,99500.23
2019-02-26T20:30:42.436Z,99492.94
2019-02-26T20:33:11.815Z,99498.87
2019-02-26T20:35:45.097Z,99502.39
2019-02-26T20:38:14.049Z,99505.77
2019-02-26T20:40:43.541Z,99505.57
2019-02-26T20:43:12.908Z,99505.02
2019-02-26T20:45:42.436Z,99497.95
2019-02-26T20:48:11.804Z,99501.76
2019-02-26T20:50:41.177Z,99501.89
2019-02-26T20:53:10.678Z,99500.27
2019-02-26T20:55:40.151Z,99498.73
2019-02-26T20:58:11.892Z,99493.09
2019-02-26T21:00:42.499Z,99489.09
2019-02-26T21:03:12.146Z,99489.48
2019-02-26T21:05:41.843Z,99478.53
2019-02-26T21:08:12.995Z,99481.34
2019-02-26T21:10:42.377Z,99478.27
2019-02-26T21:13:11.820Z,99481.73
2019-02-26T21:15:41.338Z,99483.05
2019-02-26T21:18:11.423Z,99487.55
2019-02-26T21:20:41.138Z,99493.25
2019-02-26T21:23:11.260Z,99486.81
2019-02-26T21:25:43.838Z,99481.17
2019-02-26T21:28:11.823Z,99483.47
2019-02-26T21:30:45.642Z,99487.56
2019-02-26T21:33:12.630Z,99495.04
2019-02-26T21:35:41.988Z,99497.00
2019-02-26T21:38:13.096Z,99500.17
2019-02-26T21:40:42.682Z,99499.90
2019-02-26T21:43:12.045Z,99501.27
2019-02-26T21:45:41.644Z,99486.64
2019-02-26T21:48:11.111Z,99485.00
2019-02-26T21:50:40.639Z,99484.21
2019-02-26T21:53:10.072Z,99496.41
2019-02-26T21:55:44.409Z,99489.39
2019-02-26T21:58:10.672Z,99508.16
2019-02-26T22:00:40.172Z,99513.53
2019-02-26T22:03:09.542Z,99511.18
2019-02-26T22:05:39.007Z,99505.47
2019-02-26T22:08:08.628Z,99503.55
2019-02-26T22:10:40.199Z,99508.05
2019-02-26T22:13:09.182Z,99507.14
2019-02-26T22:15:38.777Z,99509.17
2019-02-26T22:18:08.152Z,99511.53
2019-02-26T22:20:37.525Z,99505.43
2019-02-26T22:23:07.012Z,99509.37
2019-02-26T22:25:36.558Z,99501.98
2019-02-26T22:28:08.557Z,99504.34
2019-02-26T22:30:37.450Z,99499.22
2019-02-26T22:33:07.990Z,99507.64
2019-02-26T22:35:38.060Z,99507.03
2019-02-26T22:38:07.699Z,99512.63
2019-02-26T22:40:37.064Z,99515.77
2019-02-26T22:43:06.527Z,99515.23
2019-02-26T22:45:36.052Z,99521.22
2019-02-26T22:48:05.435Z,99525.73
2019-02-26T22:50:34.806Z,99527.77
2019-02-26T22:53:04.598Z,99531.70
2019-02-26T22:55:34.075Z,99526.45
2019-02-26T22:58:03.474Z,99521.72
2019-02-26T23:01:04.967Z,99520.57
2019-02-26T23:03:34.452Z,99528.23
2019-02-26T23:06:04.016Z,99525.16
2019-02-26T23:08:33.826Z,99525.56
2019-02-26T23:11:03.449Z,99518.54
2019-02-26T23:13:32.916Z,99519.18
2019-02-26T23:16:03.066Z,99516.64
2019-02-26T23:18:32.817Z,99522.53
2019-02-26T23:21:02.318Z,99530.34
2019-02-26T23:23:31.923Z,99526.20
2019-02-26T23:26:01.494Z,99524.95
2019-02-26T23:28:31.065Z,99524.83
2019-02-26T23:31:00.592Z,99527.33
2019-02-26T23:33:30.151Z,99528.64
2019-02-26T23:35:59.640Z,99520.30
2019-02-26T23:38:29.147Z,99508.62
2019-02-26T23:41:00.313Z,99517.92
2019-02-26T23:43:29.937Z,99517.46
2019-02-26T23:45:59.346Z,99524.81
2019-02-26T23:48:29.195Z,99525.21
2019-02-26T23:50:58.647Z,99525.97
2019-02-26T23:53:28.260Z,99520.36
2019-02-26T23:55:57.625Z,99519.80
2019-02-26T23:58:30.758Z,99518.55
